Time;durP1;ratioP1;P1;durP2;ratioP2;P2;SDS_P1;SDS_P2;PMS_P1;PMS_P2;Temp;Humidity;BMP_temperature;BMP_pressure;BME280_temperature;BME280_humidity;BME280_pressure;Samples;Min_cycle;Max_cycle;Signal;HPM_P1;HPM_P2
2022/08/08 00:01:33;;;;;;;;;1.50;1.50;;;;;22.37;36.58;101509.16;5029416;28;45589;-84
2022/08/08 00:04:10;;;;;;;;;2.00;2.00;;;;;22.31;36.63;101513.31;5030915;28;45450;-87
2022/08/08 00:10:31;;;;;;;;;2.00;2.00;;;;;22.24;36.13;101514.16;5027477;28;45382;-87
2022/08/08 00:13:20;;;;;;;;;2.25;2.00;;;;;22.17;36.90;101506.78;5021200;28;45523;-86
2022/08/08 00:15:57;;;;;;;;;4.00;4.00;;;;;22.14;36.79;101500.91;5018869;28;45870;-84
2022/08/08 00:18:55;;;;;;;;;3.00;3.00;;;;;22.13;37.31;101499.25;5017412;28;45908;-88
2022/08/08 00:21:29;;;;;;;;;1.25;1.25;;;;;22.11;36.95;101510.09;5019233;28;45445;-83
2022/08/08 00:24:03;;;;;;;;;3.50;2.25;;;;;22.05;37.08;101500.06;5019512;28;46933;-84
2022/08/08 00:26:34;;;;;;;;;4.00;3.00;;;;;22.05;37.22;101502.72;5017117;28;46333;-84
2022/08/08 00:29:31;;;;;;;;;3.00;3.00;;;;;22.06;37.30;101500.91;4998255;28;45669;-83
2022/08/08 00:32:03;;;;;;;;;3.00;3.00;;;;;22.00;37.52;101491.69;4997874;28;45889;-82
2022/08/08 00:38:27;;;;;;;;;2.00;2.00;;;;;21.98;37.74;101500.84;5020401;28;45781;-84
2022/08/08 00:41:22;;;;;;;;;2.75;2.75;;;;;21.95;38.08;101499.34;5002272;28;45756;-85
2022/08/08 00:43:53;;;;;;;;;3.00;2.50;;;;;21.92;37.66;101507.63;5002874;28;45665;-83
2022/08/08 00:46:55;;;;;;;;;4.00;3.00;;;;;21.88;38.23;101498.28;5022177;28;46439;-83
2022/08/08 00:56:12;;;;;;;;;4.00;3.75;;;;;21.79;38.53;101488.59;5025641;28;45548;-82
2022/08/08 00:59:15;;;;;;;;;2.75;2.75;;;;;21.75;38.36;101490.72;5008965;28;48799;-84
2022/08/08 01:02:10;;;;;;;;;2.75;2.75;;;;;21.66;38.75;101472.16;5024949;28;45885;-81
2022/08/08 01:04:54;;;;;;;;;4.00;3.00;;;;;21.65;38.86;101489.16;5027471;28;45730;-83
2022/08/08 01:07:44;;;;;;;;;4.00;4.00;;;;;21.66;39.09;101491.69;5026936;28;45647;-85
2022/08/08 01:10:54;;;;;;;;;4.00;4.00;;;;;21.62;39.25;101479.66;5023782;28;45829;-83
2022/08/08 01:13:55;;;;;;;;;3.00;3.00;;;;;21.55;38.99;101469.78;4926264;28;46481;-83
2022/08/08 01:16:45;;;;;;;;;3.75;3.75;;;;;21.54;39.52;101471.59;4925845;28;45325;-82
2022/08/08 01:19:45;;;;;;;;;3.25;2.75;;;;;21.49;39.54;101484.59;4926570;28;45822;-83
2022/08/08 01:22:19;;;;;;;;;3.50;3.50;;;;;21.45;39.55;101477.06;4926860;28;46930;-85
2022/08/08 01:25:06;;;;;;;;;5.00;4.00;;;;;21.43;39.88;101479.88;4926817;28;45931;-84
2022/08/08 01:27:43;;;;;;;;;4.00;3.00;;;;;21.41;39.62;101476.56;4925082;28;45855;-82
2022/08/08 01:30:33;;;;;;;;;6.25;4.00;;;;;21.40;39.37;101479.38;4925510;28;45708;-83
2022/08/08 01:33:17;;;;;;;;;4.50;4.00;;;;;21.37;39.80;101472.53;4923472;28;47859;-82
2022/08/08 01:39:07;;;;;;;;;5.00;3.00;;;;;21.28;40.31;101474.31;4924361;28;45655;-85
2022/08/08 01:42:00;;;;;;;;;6.25;5.00;;;;;21.26;40.21;101470.97;4923726;28;45560;-84
2022/08/08 01:44:57;;;;;;;;;3.75;3.75;;;;;21.22;40.47;101474.94;4923754;28;48567;-84
2022/08/08 01:47:57;;;;;;;;;3.75;3.00;;;;;21.20;40.40;101481.44;4924728;28;46064;-84
2022/08/08 01:57:19;;;;;;;;;4.00;3.75;;;;;21.08;40.98;101472.81;5022700;28;45546;-86
2022/08/08 01:59:59;;;;;;;;;3.75;3.75;;;;;20.99;40.69;101464.91;5022968;28;45460;-83
2022/08/08 02:02:25;;;;;;;;;3.75;3.75;;;;;21.00;41.02;101474.59;5022843;28;45558;-83
2022/08/08 02:05:06;;;;;;;;;6.00;4.75;;;;;20.95;40.88;101470.53;5023455;28;45624;-84
2022/08/08 02:07:45;;;;;;;;;4.00;2.75;;;;;20.92;41.39;101478.84;5001516;28;48749;-84
2022/08/08 02:10:44;;;;;;;;;5.75;4.75;;;;;20.89;41.24;101471.16;5017071;28;45527;-85
2022/08/08 02:13:24;;;;;;;;;5.00;5.00;;;;;20.83;41.21;101473.63;4999713;28;45789;-84
2022/08/08 02:16:00;;;;;;;;;4.00;4.00;;;;;20.86;41.36;101479.47;5017063;28;45449;-83
2022/08/08 02:18:41;;;;;;;;;4.50;4.50;;;;;20.83;41.30;101479.78;4999453;28;48609;-85
2022/08/08 02:24:30;;;;;;;;;3.00;3.00;;;;;20.77;41.49;101471.56;5016617;28;45767;-84
2022/08/08 02:27:03;;;;;;;;;6.75;5.75;;;;;20.76;41.70;101472.56;5017081;28;45758;-84
2022/08/08 02:29:39;;;;;;;;;6.25;5.25;;;;;20.74;41.77;101467.38;5016734;28;46483;-85
2022/08/08 02:32:27;;;;;;;;;4.50;4.00;;;;;20.69;41.45;101463.50;4998153;28;46172;-85
2022/08/08 02:35:01;;;;;;;;;4.00;4.00;;;;;20.71;42.02;101481.03;5018466;28;45675;-83
2022/08/08 02:41:26;;;;;;;;;4.00;3.75;;;;;20.62;42.06;101473.13;5015674;28;45749;-82
2022/08/08 02:44:10;;;;;;;;;4.00;4.00;;;;;20.58;42.74;101474.38;5002742;28;47619;-83
2022/08/08 02:46:54;;;;;;;;;4.75;4.75;;;;;20.52;43.04;101481.16;5019012;28;45676;-84
2022/08/08 02:49:50;;;;;;;;;5.75;5.00;;;;;20.42;42.93;101465.25;5020107;28;45735;-84
2022/08/08 02:52:50;;;;;;;;;4.50;4.50;;;;;20.41;43.04;101476.06;5021380;28;45640;-84
2022/08/08 02:55:30;;;;;;;;;5.25;4.00;;;;;20.38;42.97;101477.22;5019474;28;45661;-85
2022/08/08 02:58:32;;;;;;;;;6.00;5.00;;;;;20.31;43.84;101470.81;5000740;28;45581;-83
2022/08/08 03:01:19;;;;;;;;;5.50;5.00;;;;;20.29;43.92;101469.25;5018875;28;45548;-83
2022/08/08 03:04:14;;;;;;;;;6.75;6.25;;;;;20.20;43.74;101464.81;5018338;28;46561;-82
2022/08/08 03:10:39;;;;;;;;;6.00;6.00;;;;;20.10;44.16;101470.22;5019719;28;45713;-84
2022/08/08 03:13:52;;;;;;;;;5.25;4.75;;;;;20.06;43.91;101475.00;5018050;28;45706;-81
2022/08/08 03:16:32;;;;;;;;;6.00;6.00;;;;;20.03;44.00;101472.63;4917681;28;47674;-85
2022/08/08 03:19:23;;;;;;;;;8.00;6.00;;;;;19.97;44.27;101475.88;4903412;28;46396;-84
2022/08/08 03:21:48;;;;;;;;;6.50;6.00;;;;;20.02;44.23;101480.78;4862745;29;45748;-84
2022/08/08 03:24:18;;;;;;;;;6.00;6.00;;;;;19.96;44.44;101476.88;4862356;29;45640;-82
2022/08/08 03:26:50;;;;;;;;;6.50;6.00;;;;;19.98;44.24;101493.53;4862260;29;45711;-83
2022/08/08 03:29:20;;;;;;;;;6.75;6.75;;;;;19.93;44.57;101479.00;4863229;29;46103;-83
2022/08/08 03:34:34;;;;;;;;;5.50;5.25;;;;;19.91;44.87;101489.81;4863763;29;45553;-81
2022/08/08 03:43:24;;;;;;;;;5.75;5.00;;;;;19.81;45.01;101483.66;4862611;29;45644;-83
2022/08/08 03:45:49;;;;;;;;;6.00;4.25;;;;;19.79;44.40;101485.66;4862365;29;45651;-84
2022/08/08 03:48:14;;;;;;;;;5.75;5.75;;;;;19.69;44.81;101471.56;4861081;29;45793;-84
2022/08/08 03:50:48;;;;;;;;;5.50;5.00;;;;;19.74;45.30;101485.25;4860761;29;45590;-85
2022/08/08 03:53:16;;;;;;;;;6.50;6.25;;;;;19.74;44.79;101493.22;4884953;28;45582;-87
2022/08/08 03:55:44;;;;;;;;;7.75;6.75;;;;;19.74;44.60;101492.41;4918621;28;45836;-85
2022/08/08 03:58:20;;;;;;;;;6.75;6.25;;;;;19.68;45.03;101488.50;4939560;28;45673;-85
2022/08/08 04:00:53;;;;;;;;;6.00;5.25;;;;;19.76;45.25;101503.72;4997429;28;47005;-87
2022/08/08 04:03:19;;;;;;;;;5.50;5.25;;;;;19.64;44.86;101476.50;5016466;28;45619;-82
2022/08/08 04:05:45;;;;;;;;;7.00;6.25;;;;;19.70;45.20;101492.66;4999506;28;45626;-84
2022/08/08 04:08:17;;;;;;;;;6.25;6.00;;;;;19.62;45.53;101481.94;5017521;28;45680;-86
2022/08/08 04:10:49;;;;;;;;;6.00;6.00;;;;;19.66;45.48;101491.28;5016914;28;46227;-84
2022/08/08 04:13:16;;;;;;;;;9.75;6.75;;;;;19.67;45.67;101497.44;5014935;28;45541;-84
2022/08/08 04:15:42;;;;;;;;;5.75;5.75;;;;;19.54;45.09;101487.13;4997531;28;45858;-83
2022/08/08 04:18:07;;;;;;;;;6.50;6.00;;;;;19.56;45.35;101495.81;5015075;28;45550;-83
2022/08/08 04:20:32;;;;;;;;;6.00;5.50;;;;;19.54;45.87;101494.31;5014614;28;45536;-85
2022/08/08 04:22:58;;;;;;;;;9.75;7.00;;;;;19.56;45.72;101509.09;5014958;28;45843;-83
2022/08/08 04:25:23;;;;;;;;;6.75;6.75;;;;;19.50;45.59;101500.88;5014654;28;45673;-80
2022/08/08 04:27:49;;;;;;;;;6.50;6.50;;;;;19.49;45.88;101515.97;5015062;28;46711;-86
2022/08/08 04:30:14;;;;;;;;;6.25;5.00;;;;;19.47;46.15;101509.97;5016199;28;46641;-84
2022/08/08 04:32:40;;;;;;;;;7.00;6.00;;;;;19.46;46.07;101510.13;5030333;28;45661;-83
2022/08/08 04:35:06;;;;;;;;;9.50;9.00;;;;;19.45;46.15;101511.09;5013629;28;45924;-83
2022/08/08 04:37:31;;;;;;;;;7.25;7.00;;;;;19.39;46.45;101519.59;5028907;28;45621;-85
2022/08/08 04:43:29;;;;;;;;;7.25;7.00;;;;;19.34;46.93;101519.19;5017225;28;45619;-83
2022/08/08 04:45:55;;;;;;;;;8.00;6.50;;;;;19.31;46.33;101519.50;4999365;28;45906;-85
2022/08/08 04:48:21;;;;;;;;;8.00;7.00;;;;;19.23;46.21;101512.22;5017911;28;46651;-85
2022/08/08 04:50:46;;;;;;;;;5.00;4.75;;;;;19.23;47.01;101520.19;4997595;28;47148;-82
2022/08/08 04:53:12;;;;;;;;;9.25;7.50;;;;;19.21;46.27;101507.09;4996484;28;46052;-83
2022/08/08 04:55:38;;;;;;;;;8.00;7.00;;;;;19.12;46.54;101502.59;5014751;28;45827;-84
2022/08/08 04:58:03;;;;;;;;;7.00;7.00;;;;;19.22;46.49;101516.69;5014450;28;46388;-84
2022/08/08 05:00:29;;;;;;;;;7.25;6.75;;;;;19.17;46.83;101515.47;4996855;28;47219;-85
2022/08/08 05:02:55;;;;;;;;;6.75;5.25;;;;;19.20;46.56;101521.34;5014586;28;45583;-82
2022/08/08 05:05:20;;;;;;;;;8.75;8.75;;;;;19.11;46.78;101506.22;5014394;28;45481;-82
2022/08/08 05:07:46;;;;;;;;;7.50;6.75;;;;;19.22;46.82;101526.50;4996238;28;47474;-84
2022/08/08 05:13:33;;;;;;;;;6.25;6.25;;;;;19.19;46.86;101524.13;5014217;28;45675;-83
2022/08/08 05:15:58;;;;;;;;;7.50;7.00;;;;;19.19;46.66;101526.78;4996248;28;45516;-85
2022/08/08 05:18:24;;;;;;;;;7.00;7.00;;;;;19.19;47.27;101526.78;5014574;28;45694;-86
2022/08/08 05:20:49;;;;;;;;;8.00;8.00;;;;;19.23;47.10;101534.34;5017475;28;45638;-83
2022/08/08 05:23:15;;;;;;;;;8.50;7.00;;;;;19.12;46.42;101513.22;5017648;28;45600;-86
2022/08/08 05:29:07;;;;;;;;;7.25;7.00;;;;;19.20;47.09;101536.44;5018847;28;45679;-83
2022/08/08 05:31:33;;;;;;;;;7.75;7.75;;;;;19.18;47.18;101543.69;5021399;28;46258;-82
2022/08/08 05:33:58;;;;;;;;;7.50;7.25;;;;;19.18;47.42;101539.22;5002603;28;46032;-83
2022/08/08 05:36:25;;;;;;;;;6.50;6.50;;;;;19.12;47.45;101531.81;5020727;28;45690;-84
2022/08/08 05:38:51;;;;;;;;;6.50;6.50;;;;;19.15;46.96;101547.50;5020518;28;45660;-82
2022/08/08 05:41:22;;;;;;;;;7.75;7.00;;;;;19.06;47.38;101540.34;4999898;28;48526;-81
2022/08/08 05:43:48;;;;;;;;;8.00;7.75;;;;;19.08;47.58;101543.72;5019219;28;45859;-81
2022/08/08 05:46:14;;;;;;;;;8.75;8.50;;;;;19.10;47.70;101560.38;4999394;28;45858;-81
2022/08/08 05:48:41;;;;;;;;;9.75;7.00;;;;;19.02;47.79;101549.59;5016418;28;45704;-81
2022/08/08 05:51:06;;;;;;;;;10.50;8.50;;;;;19.08;47.38;101561.47;5016596;28;46307;-82
2022/08/08 05:53:32;;;;;;;;;8.75;8.00;;;;;18.97;47.67;101546.53;5016525;28;46085;-81
2022/08/08 05:59:22;;;;;;;;;7.75;7.00;;;;;19.07;47.54;101552.66;5016458;28;46066;-82
2022/08/08 06:01:52;;;;;;;;;8.00;7.00;;;;;19.09;47.39;101556.03;5015430;28;46187;-80
2022/08/08 06:04:22;;;;;;;;;8.50;7.00;;;;;19.06;47.50;101555.44;5014951;28;45787;-79
2022/08/08 06:06:50;;;;;;;;;9.00;7.00;;;;;19.13;47.41;101557.41;5015326;28;45769;-78
2022/08/08 06:09:18;;;;;;;;;10.25;8.00;;;;;19.13;47.92;101557.41;4997197;28;47788;-78
2022/08/08 06:11:44;;;;;;;;;8.75;8.00;;;;;19.08;47.11;101541.06;5015158;28;46492;-79
2022/08/08 06:14:10;;;;;;;;;10.25;9.00;;;;;19.21;47.54;101562.88;5014714;28;45570;-80
2022/08/08 06:16:36;;;;;;;;;8.50;7.50;;;;;19.21;47.40;101557.56;5015141;28;45667;-79
2022/08/08 06:19:03;;;;;;;;;10.00;9.00;;;;;19.15;47.32;101555.47;5014967;28;45579;-80
2022/08/08 06:21:29;;;;;;;;;10.50;9.00;;;;;19.16;47.59;101556.31;5015084;28;45956;-80
2022/08/08 06:23:55;;;;;;;;;9.50;8.75;;;;;19.25;47.82;101572.25;5015158;28;45607;-80
2022/08/08 06:29:58;;;;;;;;;8.50;7.00;;;;;19.34;47.44;101585.63;5014280;28;45548;-77
2022/08/08 06:32:31;;;;;;;;;8.75;8.25;;;;;19.28;47.63;101582.56;5014464;28;46215;-80
2022/08/08 06:35:02;;;;;;;;;7.00;6.50;;;;;19.31;47.16;101573.50;5015062;28;45593;-79
2022/08/08 06:37:32;;;;;;;;;11.25;10.75;;;;;19.37;47.26;101580.91;5015604;28;45641;-78
2022/08/08 06:40:03;;;;;;;;;9.00;8.50;;;;;19.40;47.11;101577.94;5014971;28;46410;-77
2022/08/08 06:42:35;;;;;;;;;9.00;9.00;;;;;19.46;47.24;101596.03;5014597;28;46972;-77
2022/08/08 06:45:06;;;;;;;;;9.50;8.50;;;;;19.48;47.45;101593.22;5014813;28;45833;-75
2022/08/08 06:47:34;;;;;;;;;9.75;8.75;;;;;19.50;47.58;101584.13;5014723;28;45886;-76
2022/08/08 06:49:59;;;;;;;;;10.00;8.25;;;;;19.53;47.00;101583.84;5014404;28;45785;-76
2022/08/08 06:52:26;;;;;;;;;9.50;8.50;;;;;19.56;47.09;101586.19;5014366;28;46084;-76
2022/08/08 06:54:54;;;;;;;;;9.00;8.00;;;;;19.60;47.22;101589.41;5014516;28;45578;-76
2022/08/08 06:57:20;;;;;;;;;10.25;9.00;;;;;19.63;46.82;101587.31;5014203;28;45796;-74
2022/08/08 06:59:45;;;;;;;;;12.25;10.00;;;;;19.64;47.19;101591.66;5014490;28;46810;-74
2022/08/08 07:02:30;;;;;;;;;11.50;10.00;;;;;19.68;46.80;101593.03;4996269;28;46929;-77
2022/08/08 07:05:06;;;;;;;;;10.50;9.75;;;;;19.73;46.79;101599.75;5014530;28;45813;-77
2022/08/08 07:07:50;;;;;;;;;10.25;8.00;;;;;19.74;47.06;101599.59;5014423;28;45571;-76
2022/08/08 07:10:19;;;;;;;;;11.00;9.25;;;;;19.73;47.08;101597.09;5014695;28;45755;-76
2022/08/08 07:12:51;;;;;;;;;9.25;9.00;;;;;19.76;46.96;101608.25;5014562;28;45707;-76
2022/08/08 07:15:22;;;;;;;;;10.25;7.75;;;;;19.79;46.54;101605.31;5014222;28;45492;-77
2022/08/08 07:17:49;;;;;;;;;9.00;9.00;;;;;19.78;46.64;101602.81;5014593;28;45688;-76
2022/08/08 07:20:19;;;;;;;;;10.00;10.00;;;;;19.83;46.33;101613.84;5014307;28;46444;-76
2022/08/08 07:23:02;;;;;;;;;10.00;8.00;;;;;19.83;46.64;101609.38;5017639;28;46192;-76
2022/08/08 07:25:31;;;;;;;;;9.00;8.00;;;;;19.87;46.83;101610.75;5014092;28;45772;-76
2022/08/08 07:28:07;;;;;;;;;12.00;10.50;;;;;19.92;46.88;101619.13;5014203;28;45633;-75
2022/08/08 07:30:34;;;;;;;;;10.00;9.00;;;;;19.92;46.53;101619.13;5014029;28;45651;-76
2022/08/08 07:33:00;;;;;;;;;11.75;10.75;;;;;19.99;46.55;101627.38;5014586;28;46434;-75
2022/08/08 07:35:27;;;;;;;;;9.25;9.25;;;;;20.02;46.19;101629.78;5013809;28;45826;-76
2022/08/08 07:37:56;;;;;;;;;10.25;9.50;;;;;20.02;46.00;101609.31;5013907;28;45650;-76
2022/08/08 07:40:23;;;;;;;;;9.25;7.75;;;;;20.03;46.43;101616.31;4995621;28;47189;-77
2022/08/08 07:42:51;;;;;;;;;8.50;8.00;;;;;20.13;46.16;101627.75;5013577;28;46079;-76
2022/08/08 07:45:17;;;;;;;;;7.75;7.75;;;;;20.16;45.90;101628.44;5014426;28;45547;-76
2022/08/08 07:47:42;;;;;;;;;10.00;8.75;;;;;20.23;45.67;101624.22;5014002;28;45784;-78
2022/08/08 07:50:08;;;;;;;;;8.50;8.00;;;;;20.25;45.95;101617.75;5013924;28;45650;-76
2022/08/08 07:52:34;;;;;;;;;8.75;8.00;;;;;20.33;45.82;101617.06;5013565;28;47215;-76
2022/08/08 07:55:09;;;;;;;;;9.00;8.25;;;;;20.35;45.60;101615.09;5013846;28;45750;-75
2022/08/08 08:01:04;;;;;;;;;9.00;8.00;;;;;20.49;45.17;101628.75;5013311;28;45622;-75
2022/08/08 08:03:44;;;;;;;;;9.75;6.00;;;;;20.55;45.12;101621.16;4994844;28;47456;-75
2022/08/08 08:06:11;;;;;;;;;9.50;7.25;;;;;20.60;44.89;101619.72;5013451;28;45584;-76
2022/08/08 08:08:45;;;;;;;;;7.00;7.00;;;;;20.64;44.87;101612.25;5013983;28;45968;-76
2022/08/08 08:11:14;;;;;;;;;8.50;7.50;;;;;20.70;44.54;101619.66;5013652;28;45634;-74
2022/08/08 08:13:45;;;;;;;;;8.00;8.00;;;;;20.78;44.03;101617.09;5013524;28;45956;-75
2022/08/08 08:16:20;;;;;;;;;6.00;6.00;;;;;20.82;44.33;101619.31;5013359;28;45583;-75
2022/08/08 08:18:54;;;;;;;;;6.00;6.00;;;;;20.88;44.17;101617.88;5013603;28;45636;-76
2022/08/08 08:21:21;;;;;;;;;4.75;4.75;;;;;20.94;44.10;101623.41;5013297;28;46544;-75
2022/08/08 08:23:47;;;;;;;;;6.75;6.75;;;;;20.98;43.86;101623.97;5013603;28;46479;-75
2022/08/08 08:26:13;;;;;;;;;7.25;6.25;;;;;21.07;44.06;101619.53;5015016;28;45660;-76
2022/08/08 08:28:39;;;;;;;;;5.00;5.00;;;;;21.13;43.65;101622.44;5014815;28;45627;-74
2022/08/08 08:31:06;;;;;;;;;7.50;6.25;;;;;21.19;42.99;101626.34;5014445;28;45687;-76
2022/08/08 08:33:32;;;;;;;;;10.50;8.00;;;;;21.25;43.23;101623.91;4995921;28;47120;-75
2022/08/08 08:35:58;;;;;;;;;4.50;4.50;;;;;21.27;43.33;101619.25;5013729;28;45615;-83
2022/08/08 08:38:30;;;;;;;;;4.00;3.75;;;;;21.38;42.87;101620.03;4996169;28;45826;-83
2022/08/08 08:40:57;;;;;;;;;6.00;5.00;;;;;21.49;43.15;101627.75;5014273;28;46642;-82
2022/08/08 08:43:23;;;;;;;;;5.75;5.75;;;;;21.49;43.26;101622.41;4995488;28;47161;-82
2022/08/08 08:45:49;;;;;;;;;5.25;5.00;;;;;21.61;42.34;101627.38;5013930;28;45598;-82
2022/08/08 08:48:18;;;;;;;;;5.50;5.50;;;;;21.67;42.27;101624.06;5014284;28;45630;-81
2022/08/08 08:50:50;;;;;;;;;4.00;3.75;;;;;21.74;41.94;101627.81;5013888;28;45673;-82
2022/08/08 08:53:16;;;;;;;;;5.50;5.50;;;;;21.77;41.67;101616.81;5014317;28;46024;-82
2022/08/08 08:55:44;;;;;;;;;8.75;6.75;;;;;21.88;41.87;101622.88;4999338;28;45693;-82
2022/08/08 09:01:37;;;;;;;;;6.00;6.00;;;;;22.03;41.40;101622.16;5017382;28;46088;-82
2022/08/08 09:04:13;;;;;;;;;5.75;4.75;;;;;22.08;41.10;101619.84;5016898;28;46428;-82
2022/08/08 09:06:40;;;;;;;;;5.50;5.00;;;;;22.13;41.04;101622.88;5017396;28;45923;-82
2022/08/08 09:09:34;;;;;;;;;7.75;5.25;;;;;22.21;41.01;101618.56;5018898;28;45626;-84
2022/08/08 09:12:01;;;;;;;;;5.00;5.00;;;;;22.27;40.95;101625.94;4920246;28;47860;-80
2022/08/08 09:14:27;;;;;;;;;5.00;5.00;;;;;22.21;40.55;101607.91;4936879;28;46275;-80
2022/08/08 09:16:53;;;;;;;;;6.00;5.00;;;;;22.38;40.24;101614.97;4936179;28;45891;-81
2022/08/08 09:19:19;;;;;;;;;8.00;5.75;;;;;22.44;40.15;101615.19;4936696;28;45701;-80
2022/08/08 09:21:46;;;;;;;;;7.75;6.00;;;;;22.53;39.71;101610.69;4936493;28;45777;-81
2022/08/08 09:24:13;;;;;;;;;4.50;4.50;;;;;22.56;39.61;101605.03;4936690;28;46316;-81
2022/08/08 09:27:01;;;;;;;;;4.00;4.00;;;;;22.67;38.92;101620.78;4936357;28;45752;-79
2022/08/08 09:29:31;;;;;;;;;5.75;5.00;;;;;22.68;39.01;101608.22;4936649;28;45928;-80
2022/08/08 09:32:07;;;;;;;;;6.00;6.00;;;;;22.80;38.14;101613.13;4920322;28;45680;-83
2022/08/08 09:34:34;;;;;;;;;7.00;5.50;;;;;22.84;38.44;101603.78;4936071;28;46016;-82
2022/08/08 09:37:08;;;;;;;;;4.00;4.00;;;;;22.98;38.37;101613.84;4936275;28;45699;-83
2022/08/08 09:39:47;;;;;;;;;5.00;4.25;;;;;23.04;38.05;101612.34;4936174;28;45601;-81
2022/08/08 09:42:15;;;;;;;;;4.00;4.00;;;;;23.12;37.76;101615.03;4935916;28;45743;-80
2022/08/08 09:45:04;;;;;;;;;6.00;5.75;;;;;23.21;37.01;101623.91;4936065;28;46255;-82
2022/08/08 09:47:35;;;;;;;;;5.00;5.00;;;;;23.25;37.41;101612.69;4946150;28;45665;-82
2022/08/08 09:50:05;;;;;;;;;5.00;5.00;;;;;23.32;37.28;101610.19;5016777;28;45739;-83
2022/08/08 09:52:32;;;;;;;;;6.00;6.00;;;;;23.36;37.35;101615.03;5016738;28;45586;-84
2022/08/08 09:54:58;;;;;;;;;3.75;3.50;;;;;23.39;36.87;101605.81;5016879;28;45689;-84
2022/08/08 09:57:38;;;;;;;;;4.00;3.00;;;;;23.40;36.29;101600.31;5016851;28;45547;-83
2022/08/08 10:00:09;;;;;;;;;5.00;4.75;;;;;23.50;36.27;101607.34;5016987;28;45595;-83
2022/08/08 10:02:47;;;;;;;;;5.50;4.75;;;;;23.59;36.80;101609.03;5025159;28;45810;-82
2022/08/08 10:05:17;;;;;;;;;4.50;4.50;;;;;23.59;36.88;101598.34;5028040;28;45571;-82
2022/08/08 10:07:51;;;;;;;;;4.75;4.75;;;;;23.68;36.32;101603.50;5025171;28;45679;-84
2022/08/08 10:10:28;;;;;;;;;4.00;4.00;;;;;23.78;36.88;101600.63;4999850;28;45654;-83
2022/08/08 10:12:54;;;;;;;;;6.00;5.00;;;;;23.80;36.22;101585.25;4998119;28;48450;-83
2022/08/08 10:15:22;;;;;;;;;5.25;5.25;;;;;23.87;35.70;101596.91;4998025;28;48285;-82
2022/08/08 10:17:49;;;;;;;;;8.50;5.50;;;;;23.96;36.00;101600.44;5015810;28;45578;-82
2022/08/08 10:20:15;;;;;;;;;4.50;4.50;;;;;23.99;36.38;101600.91;5016239;28;45625;-84
2022/08/08 10:23:03;;;;;;;;;4.75;4.50;;;;;24.01;35.71;101579.31;5016140;28;46580;-81
2022/08/08 10:25:29;;;;;;;;;7.25;5.75;;;;;24.09;35.28;101592.66;4997314;28;47276;-83
2022/08/08 10:27:55;;;;;;;;;4.25;4.00;;;;;24.12;35.30;101590.50;4998139;28;46013;-84
2022/08/08 10:30:22;;;;;;;;;4.50;4.00;;;;;24.15;34.59;101597.34;5016667;28;45765;-83
2022/08/08 10:32:59;;;;;;;;;5.00;5.00;;;;;24.15;34.85;101571.41;4998796;28;47376;-81
2022/08/08 10:35:27;;;;;;;;;5.25;5.00;;;;;24.17;34.64;101563.19;4998037;28;46750;-83
2022/08/08 10:37:58;;;;;;;;;5.50;5.50;;;;;24.29;34.71;101569.03;5016658;28;45684;-83
2022/08/08 10:40:26;;;;;;;;;6.00;5.50;;;;;24.37;35.19;101574.34;5018820;28;45693;-82
2022/08/08 10:42:56;;;;;;;;;6.00;5.00;;;;;24.41;35.20;101583.69;5003116;28;47283;-83
2022/08/08 10:45:22;;;;;;;;;7.00;5.00;;;;;24.43;34.69;101577.16;5018167;28;45945;-84
2022/08/08 10:47:53;;;;;;;;;5.00;5.00;;;;;24.50;35.01;101577.28;5017349;28;45654;-85
2022/08/08 10:50:18;;;;;;;;;5.50;4.00;;;;;24.57;34.72;101572.88;5016739;28;45535;-84
2022/08/08 10:52:44;;;;;;;;;4.00;4.00;;;;;24.63;33.75;101578.38;5016598;28;45736;-84
2022/08/08 10:55:12;;;;;;;;;5.50;5.00;;;;;24.66;33.48;101578.03;5016286;28;46080;-84
2022/08/08 10:57:40;;;;;;;;;6.00;5.00;;;;;24.67;34.21;101576.16;4997629;28;45667;-83
2022/08/08 11:00:09;;;;;;;;;4.00;4.00;;;;;24.69;33.98;101566.13;4998007;28;45677;-84
2022/08/08 11:02:35;;;;;;;;;4.00;3.75;;;;;24.76;33.79;101577.81;5015747;28;46671;-84
2022/08/08 11:05:08;;;;;;;;;6.00;5.50;;;;;24.75;33.64;101560.03;5015825;28;45763;-85
2022/08/08 11:07:35;;;;;;;;;6.00;5.00;;;;;24.85;33.51;101579.41;5016270;28;45783;-84
2022/08/08 11:10:14;;;;;;;;;4.25;4.00;;;;;24.90;33.16;101571.69;5020459;28;45512;-84
2022/08/08 11:12:46;;;;;;;;;7.00;6.25;;;;;24.94;33.47;101575.69;5021534;28;45733;-83
2022/08/08 11:15:14;;;;;;;;;5.00;5.00;;;;;24.97;33.08;101574.50;5019822;28;45906;-84
2022/08/08 11:17:41;;;;;;;;;5.50;5.00;;;;;25.01;32.97;101573.97;5016121;28;45580;-83
2022/08/08 11:20:08;;;;;;;;;6.00;6.00;;;;;25.05;32.47;101566.38;5015498;28;45780;-83
2022/08/08 11:22:35;;;;;;;;;5.00;4.00;;;;;25.08;32.96;101571.41;5015167;28;45892;-85
2022/08/08 11:25:03;;;;;;;;;5.50;5.00;;;;;25.14;32.15;101569.84;4997663;28;47198;-85
2022/08/08 11:27:32;;;;;;;;;5.00;5.00;;;;;25.16;32.38;101555.22;5015533;28;45548;-84
2022/08/08 11:29:59;;;;;;;;;4.00;4.00;;;;;25.15;32.04;101550.91;4997783;28;45644;-85
2022/08/08 11:32:26;;;;;;;;;4.50;4.00;;;;;25.21;30.96;101552.03;5015113;28;46457;-83
2022/08/08 11:35:09;;;;;;;;;3.00;3.00;;;;;25.30;30.56;101567.03;4996868;28;48284;-86
2022/08/08 11:37:36;;;;;;;;;3.75;3.25;;;;;25.33;31.27;101559.44;4995961;28;45722;-86
2022/08/08 11:40:04;;;;;;;;;5.75;3.75;;;;;25.34;30.71;101566.47;5015223;28;45619;-84
2022/08/08 11:42:30;;;;;;;;;4.50;4.50;;;;;25.37;31.46;101551.88;4996751;28;48188;-84
2022/08/08 11:44:57;;;;;;;;;3.75;3.00;;;;;25.42;30.10;101550.31;5014989;28;45981;-84
2022/08/08 11:47:24;;;;;;;;;3.00;3.00;;;;;25.52;30.38;101550.03;4996421;28;45670;-84
2022/08/08 11:49:56;;;;;;;;;3.00;3.00;;;;;25.56;30.30;101550.53;5014907;28;45725;-85
2022/08/08 11:52:23;;;;;;;;;4.50;3.75;;;;;25.57;30.63;101534.25;4997235;28;48225;-84
2022/08/08 11:54:49;;;;;;;;;4.00;4.00;;;;;25.67;30.31;101540.16;5015018;28;46246;-84
2022/08/08 11:57:17;;;;;;;;;5.00;5.00;;;;;25.73;30.25;101544.81;4997164;28;45793;-83
2022/08/08 12:03:15;;;;;;;;;4.75;4.50;;;;;25.85;29.61;101551.38;5014572;28;46180;-84
2022/08/08 12:05:41;;;;;;;;;3.75;3.75;;;;;25.89;29.39;101541.94;5014246;28;45500;-83
2022/08/08 12:08:06;;;;;;;;;5.00;5.00;;;;;25.88;29.79;101521.44;5014584;28;45746;-83
2022/08/08 12:10:32;;;;;;;;;4.00;4.00;;;;;25.99;29.52;101527.38;5014422;28;45774;-83
2022/08/08 12:13:06;;;;;;;;;3.00;3.00;;;;;26.01;28.72;101523.50;5015244;28;45639;-83
2022/08/08 12:15:35;;;;;;;;;3.50;3.50;;;;;26.01;29.05;101514.59;5014613;28;46148;-83
2022/08/08 12:18:12;;;;;;;;;3.00;3.00;;;;;26.08;28.92;101523.53;5014572;28;45768;-83
2022/08/08 12:20:39;;;;;;;;;4.00;4.00;;;;;26.14;28.20;101520.13;4997291;28;45670;-87
2022/08/08 12:23:04;;;;;;;;;4.00;4.00;;;;;26.14;27.62;101530.84;5014824;28;45605;-85
2022/08/08 12:25:33;;;;;;;;;5.00;4.00;;;;;26.21;28.11;101521.03;5015392;28;46369;-87
2022/08/08 12:28:27;;;;;;;;;4.00;3.25;;;;;26.23;28.53;101513.66;4995921;28;45647;-85
2022/08/08 12:31:07;;;;;;;;;4.00;4.00;;;;;26.29;28.79;101511.03;4915446;28;45544;-85
2022/08/08 12:33:33;;;;;;;;;4.75;4.00;;;;;26.35;27.97;101506.75;4915063;28;46598;-83
2022/08/08 12:36:12;;;;;;;;;4.75;3.75;;;;;26.31;27.94;101506.31;4899243;28;47441;-85
2022/08/08 12:38:49;;;;;;;;;3.00;2.00;;;;;26.38;27.67;101511.75;4915683;28;45551;-85
2022/08/08 12:41:14;;;;;;;;;4.00;4.00;;;;;26.38;27.34;101498.31;4916980;28;45666;-84
2022/08/08 12:43:40;;;;;;;;;3.25;3.25;;;;;26.43;27.40;101498.56;4916612;28;45603;-84
2022/08/08 12:46:16;;;;;;;;;3.50;3.00;;;;;26.49;27.21;101505.88;4916565;28;46100;-84
2022/08/08 12:48:53;;;;;;;;;4.00;3.50;;;;;26.57;27.63;101497.69;4921581;28;45712;-85
2022/08/08 12:51:19;;;;;;;;;4.50;3.75;;;;;26.57;27.98;101489.63;4922110;28;45769;-83
2022/08/08 12:53:58;;;;;;;;;4.75;4.00;;;;;26.66;27.00;101510.00;4920146;28;45472;-82
2022/08/08 12:56:37;;;;;;;;;2.00;2.00;;;;;26.66;25.08;101499.25;4918542;28;45973;-82
2022/08/08 12:59:22;;;;;;;;;3.00;2.00;;;;;26.70;26.02;101500.50;4916974;28;45712;-82
2022/08/08 13:01:51;;;;;;;;;4.75;3.00;;;;;26.72;26.09;101500.31;4899727;28;46004;-83